createdAt,value
2019-03-23T00:00:16.100Z,99.40
2019-03-23T00:02:55.184Z,99.60
2019-03-23T00:05:33.316Z,99.30
2019-03-23T00:08:10.995Z,99.30
2019-03-23T00:10:49.361Z,99.40
2019-03-23T00:13:27.440Z,99.20
2019-03-23T00:16:05.163Z,99.20
2019-03-23T00:18:43.396Z,98.90
2019-03-23T00:21:21.643Z,98.90
2019-03-23T00:23:59.644Z,98.90
2019-03-23T00:26:38.122Z,99.00
2019-03-23T00:29:16.286Z,99.00
2019-03-23T00:31:54.734Z,99.10
2019-03-23T00:34:32.979Z,99.10
2019-03-23T00:37:10.949Z,99.10
2019-03-23T00:39:49.315Z,99.20
2019-03-23T00:42:27.101Z,99.30
2019-03-23T00:45:05.615Z,99.30
2019-03-23T00:47:43.443Z,99.50
2019-03-23T00:50:21.122Z,99.50
2019-03-23T00:52:59.105Z,99.60
2019-03-23T00:55:36.779Z,99.70
2019-03-23T00:58:14.619Z,99.80
2019-03-23T01:00:52.643Z,99.90
2019-03-23T01:03:30.890Z,99.90
2019-03-23T01:06:09.607Z,99.90
2019-03-23T01:08:47.396Z,99.90
2019-03-23T01:11:25.006Z,99.90
2019-03-23T01:14:02.974Z,99.90
2019-03-23T01:16:40.715Z,99.90
2019-03-23T01:19:18.469Z,99.90
2019-03-23T01:21:56.341Z,99.90
2019-03-23T01:24:34.515Z,99.90
2019-03-23T01:27:12.347Z,99.90
2019-03-23T01:29:50.216Z,99.90
2019-03-23T01:32:27.846Z,99.90
2019-03-23T01:35:06.130Z,99.90
2019-03-23T01:37:43.829Z,99.90
2019-03-23T01:40:21.839Z,99.90
2019-03-23T01:43:00.540Z,99.90
2019-03-23T01:45:38.252Z,99.90
2019-03-23T01:48:16.350Z,99.90
2019-03-23T01:50:54.069Z,99.90
2019-03-23T01:53:31.730Z,99.90
2019-03-23T01:56:09.336Z,99.90
2019-03-23T01:58:47.110Z,99.90
2019-03-23T02:01:24.844Z,99.90
2019-03-23T02:04:02.656Z,99.90
2019-03-23T02:06:40.393Z,99.90
2019-03-23T02:09:18.198Z,99.90
2019-03-23T02:11:55.907Z,99.90
2019-03-23T02:14:34.284Z,99.90
2019-03-23T02:17:12.371Z,99.90
2019-03-23T02:19:50.111Z,99.90
2019-03-23T02:22:27.897Z,99.90
2019-03-23T02:25:05.897Z,99.90
2019-03-23T02:27:43.673Z,99.90
2019-03-23T02:30:21.434Z,99.90
2019-03-23T02:32:59.350Z,99.90
2019-03-23T02:35:37.081Z,99.90
2019-03-23T02:38:14.750Z,99.90
2019-03-23T02:40:52.507Z,99.90
2019-03-23T02:43:30.675Z,99.90
2019-03-23T02:46:08.454Z,99.90
2019-03-23T02:48:46.629Z,99.90
2019-03-23T02:51:24.358Z,99.90
2019-03-23T02:54:02.181Z,99.90
2019-03-23T02:56:39.950Z,99.90
2019-03-23T02:59:17.620Z,99.90
2019-03-23T03:01:55.352Z,99.90
2019-03-23T03:04:33.136Z,99.90
2019-03-23T03:07:11.283Z,99.90
2019-03-23T03:09:49.506Z,99.90
2019-03-23T03:12:27.239Z,99.90
2019-03-23T03:15:06.014Z,99.90
2019-03-23T03:17:43.777Z,99.90
2019-03-23T03:20:21.543Z,99.90
2019-03-23T03:22:59.382Z,99.90
2019-03-23T03:25:37.468Z,99.90
2019-03-23T03:28:15.348Z,99.90
2019-03-23T03:30:53.571Z,99.90
2019-03-23T03:33:31.411Z,99.90
2019-03-23T03:36:09.511Z,99.90
2019-03-23T03:38:47.119Z,99.90
2019-03-23T03:41:24.803Z,99.90
2019-03-23T03:44:03.135Z,99.90
2019-03-23T03:46:40.991Z,99.90
2019-03-23T03:49:19.189Z,99.90
2019-03-23T03:51:57.863Z,99.90
2019-03-23T03:54:35.753Z,99.90
2019-03-23T03:57:13.548Z,99.90
2019-03-23T03:59:51.840Z,99.90
2019-03-23T04:02:29.598Z,99.90
2019-03-23T04:05:08.555Z,99.90
2019-03-23T04:07:46.675Z,99.90
2019-03-23T04:10:24.550Z,99.90
2019-03-23T04:13:03.143Z,99.90
2019-03-23T04:15:41.387Z,99.90
2019-03-23T04:18:19.696Z,99.90
2019-03-23T04:20:57.517Z,99.90
2019-03-23T04:23:36.271Z,99.90
2019-03-23T04:26:13.897Z,99.90
2019-03-23T04:28:51.561Z,99.90
2019-03-23T04:31:30.150Z,99.90
2019-03-23T04:34:08.030Z,99.90
2019-03-23T04:36:45.922Z,99.90
2019-03-23T04:39:23.786Z,99.90
2019-03-23T04:42:02.039Z,99.90
2019-03-23T04:44:40.005Z,99.90
2019-03-23T04:47:17.640Z,99.90
2019-03-23T04:49:55.912Z,99.90
2019-03-23T04:52:34.120Z,99.90
2019-03-23T04:55:12.725Z,99.90
2019-03-23T04:57:50.956Z,99.90
2019-03-23T05:00:29.220Z,99.90
2019-03-23T05:03:07.446Z,99.90
2019-03-23T05:05:45.244Z,99.90
2019-03-23T05:08:32.878Z,99.90
2019-03-23T05:11:03.493Z,99.90
2019-03-23T05:13:41.377Z,99.90
2019-03-23T05:16:19.706Z,99.90
2019-03-23T05:18:57.560Z,99.90
2019-03-23T05:21:35.204Z,99.90
2019-03-23T05:24:13.918Z,99.90
2019-03-23T05:26:51.786Z,99.90
2019-03-23T05:29:29.460Z,99.90
2019-03-23T05:32:07.542Z,99.90
2019-03-23T05:34:45.307Z,99.90
2019-03-23T05:37:23.192Z,99.90
2019-03-23T05:40:01.081Z,99.90
2019-03-23T05:42:39.830Z,99.90
2019-03-23T05:45:18.472Z,99.90
2019-03-23T05:47:56.675Z,99.90
2019-03-23T05:50:34.628Z,99.90
2019-03-23T05:53:12.750Z,99.90
2019-03-23T05:55:50.653Z,99.90
2019-03-23T05:58:28.861Z,99.90
2019-03-23T06:01:06.581Z,99.90
2019-03-23T06:03:44.549Z,99.90
2019-03-23T06:06:22.498Z,99.90
2019-03-23T06:09:00.423Z,99.90
2019-03-23T06:11:38.645Z,99.90
2019-03-23T06:14:16.671Z,99.90
2019-03-23T06:16:54.883Z,99.90
2019-03-23T06:19:32.760Z,99.90
2019-03-23T06:22:10.929Z,99.90
2019-03-23T06:24:48.568Z,99.90
2019-03-23T06:27:26.905Z,99.90
2019-03-23T06:30:05.448Z,99.90
2019-03-23T06:32:43.147Z,99.90
2019-03-23T06:35:20.851Z,99.90
2019-03-23T06:37:59.149Z,99.90
2019-03-23T06:40:37.471Z,99.90
2019-03-23T06:43:15.096Z,99.90
2019-03-23T06:45:53.057Z,99.90
2019-03-23T06:48:31.334Z,99.90
2019-03-23T06:51:09.281Z,99.90
2019-03-23T06:53:47.205Z,99.90
2019-03-23T06:56:25.191Z,99.90
2019-03-23T06:59:03.083Z,99.90
2019-03-23T07:01:40.799Z,99.90
2019-03-23T07:04:19.087Z,99.90
2019-03-23T07:06:57.692Z,99.90
2019-03-23T07:09:35.616Z,99.90
2019-03-23T07:12:13.806Z,99.90
2019-03-23T07:14:52.022Z,99.90
2019-03-23T07:17:29.990Z,99.90
2019-03-23T07:20:09.612Z,99.90
2019-03-23T07:22:47.565Z,99.90
2019-03-23T07:25:25.308Z,99.90
2019-03-23T07:28:02.980Z,99.90
2019-03-23T07:30:40.932Z,99.90
2019-03-23T07:33:18.716Z,99.90
2019-03-23T07:35:56.987Z,99.90
2019-03-23T07:38:34.629Z,99.90
2019-03-23T07:41:12.539Z,99.90
2019-03-23T07:43:50.387Z,97.50
2019-03-23T07:46:28.661Z,95.30
2019-03-23T07:49:06.555Z,95.20
2019-03-23T07:51:44.487Z,95.70
2019-03-23T07:54:22.266Z,97.20
2019-03-23T07:57:00.048Z,97.80
2019-03-23T07:59:37.903Z,97.60
2019-03-23T08:02:15.997Z,95.20
2019-03-23T08:04:54.281Z,94.80
2019-03-23T08:07:32.458Z,92.50
2019-03-23T08:10:11.191Z,92.20
2019-03-23T08:12:48.965Z,92.10
2019-03-23T08:15:26.988Z,92.20
2019-03-23T08:18:05.074Z,90.90
2019-03-23T08:20:43.049Z,90.00
2019-03-23T08:23:20.845Z,89.30
2019-03-23T08:25:58.526Z,88.30
2019-03-23T08:28:36.821Z,88.60
2019-03-23T08:31:14.657Z,86.70
2019-03-23T08:33:52.449Z,85.10
2019-03-23T08:36:30.877Z,84.60
2019-03-23T08:39:09.090Z,82.60
2019-03-23T08:41:47.269Z,79.80
2019-03-23T08:44:25.274Z,77.80
2019-03-23T08:47:03.312Z,77.20
2019-03-23T08:49:41.106Z,75.50
2019-03-23T08:52:19.695Z,79.90
2019-03-23T08:54:57.515Z,80.00
2019-03-23T08:57:36.367Z,79.60
2019-03-23T09:00:14.211Z,78.90
2019-03-23T09:02:51.930Z,75.30
2019-03-23T09:05:29.711Z,70.20
2019-03-23T09:08:07.448Z,68.30
2019-03-23T09:10:45.255Z,68.30
2019-03-23T09:13:23.029Z,68.70
2019-03-23T09:16:00.734Z,71.30
2019-03-23T09:18:38.394Z,68.90
2019-03-23T09:21:16.272Z,65.40
2019-03-23T09:23:54.905Z,68.40
2019-03-23T09:26:32.830Z,67.80
2019-03-23T09:29:11.933Z,68.50
2019-03-23T09:31:49.639Z,65.20
2019-03-23T09:34:27.537Z,63.40
2019-03-23T09:37:05.273Z,63.20
2019-03-23T09:39:44.084Z,60.20
2019-03-23T09:42:22.332Z,59.00
2019-03-23T09:45:00.030Z,59.40
2019-03-23T09:47:38.341Z,58.20
2019-03-23T09:50:16.087Z,55.80
2019-03-23T09:52:53.823Z,52.10
2019-03-23T09:55:32.100Z,53.90
2019-03-23T09:58:10.345Z,55.70
2019-03-23T10:00:48.204Z,59.40
2019-03-23T10:03:26.477Z,59.90
2019-03-23T10:06:05.988Z,61.40
2019-03-23T10:08:46.427Z,62.10
2019-03-23T10:11:25.315Z,63.40
2019-03-23T10:14:03.273Z,62.20
2019-03-23T10:16:41.518Z,59.80
2019-03-23T10:19:19.744Z,59.40
2019-03-23T10:21:57.611Z,59.60
2019-03-23T10:24:35.493Z,61.70
2019-03-23T10:27:13.340Z,59.50
2019-03-23T10:29:51.053Z,59.00
2019-03-23T10:32:29.070Z,59.80
2019-03-23T10:35:07.814Z,59.00
2019-03-23T10:37:46.449Z,57.20
2019-03-23T10:40:31.898Z,58.00
2019-03-23T10:43:03.768Z,58.20
2019-03-23T10:45:44.407Z,58.80
2019-03-23T10:48:21.134Z,60.00
2019-03-23T10:50:59.337Z,59.00
2019-03-23T10:53:37.096Z,58.00
2019-03-23T10:56:15.230Z,57.80
2019-03-23T10:58:52.974Z,56.30
2019-03-23T11:01:30.644Z,60.60
2019-03-23T11:04:08.524Z,63.00
2019-03-23T11:06:46.743Z,63.80
2019-03-23T11:09:25.079Z,62.70
2019-03-23T11:12:02.928Z,60.10
2019-03-23T11:14:40.699Z,59.20
2019-03-23T11:17:18.549Z,57.90
2019-03-23T11:19:58.391Z,57.60
2019-03-23T11:22:35.502Z,57.20
2019-03-23T11:25:13.744Z,58.30
2019-03-23T11:27:51.526Z,60.00
2019-03-23T11:30:29.847Z,61.10
2019-03-23T11:33:07.488Z,61.60
2019-03-23T11:35:45.169Z,62.50
2019-03-23T11:38:22.910Z,64.20
2019-03-23T11:41:01.171Z,62.10
2019-03-23T11:43:40.115Z,62.10
2019-03-23T11:46:17.936Z,62.20
2019-03-23T11:48:55.801Z,64.40
2019-03-23T11:51:33.890Z,66.20
2019-03-23T11:54:12.801Z,68.30
2019-03-23T11:56:51.889Z,70.00
2019-03-23T11:59:29.778Z,67.80
2019-03-23T12:02:07.555Z,67.80
2019-03-23T12:04:45.439Z,67.60
2019-03-23T12:07:23.222Z,67.10
2019-03-23T12:10:00.937Z,68.70
2019-03-23T12:12:38.842Z,72.60
2019-03-23T12:15:16.715Z,73.40
2019-03-23T12:17:54.450Z,77.60
2019-03-23T12:20:32.394Z,77.50
2019-03-23T12:23:10.326Z,75.30
2019-03-23T12:25:48.188Z,75.50
2019-03-23T12:28:26.039Z,75.30
2019-03-23T12:31:04.328Z,75.80
2019-03-23T12:33:42.618Z,75.10
2019-03-23T12:36:20.767Z,74.70
2019-03-23T12:38:58.616Z,75.20
2019-03-23T12:41:36.934Z,74.00
2019-03-23T12:44:14.572Z,74.80
2019-03-23T12:46:52.306Z,74.50
2019-03-23T12:49:30.146Z,72.30
2019-03-23T12:52:09.260Z,73.00
2019-03-23T12:54:47.177Z,73.20
2019-03-23T12:57:25.094Z,72.90
2019-03-23T13:00:03.441Z,72.80
2019-03-23T13:02:41.406Z,71.60
2019-03-23T13:05:19.071Z,74.60
2019-03-23T13:07:58.056Z,79.10
2019-03-23T13:10:35.896Z,82.60
2019-03-23T13:13:13.792Z,84.80
2019-03-23T13:15:51.648Z,87.90
2019-03-23T13:18:29.305Z,88.70
2019-03-23T13:21:07.152Z,89.30
2019-03-23T13:23:45.857Z,89.60
2019-03-23T13:26:23.495Z,86.20
2019-03-23T13:29:01.409Z,85.60
2019-03-23T13:31:39.243Z,84.40
2019-03-23T13:34:17.649Z,83.20
2019-03-23T13:36:55.531Z,83.70
2019-03-23T13:39:34.317Z,85.40
2019-03-23T13:42:12.517Z,86.60
2019-03-23T13:44:50.525Z,86.00
2019-03-23T13:47:28.167Z,87.00
2019-03-23T13:50:06.797Z,87.40
2019-03-23T13:52:44.456Z,87.40
2019-03-23T13:55:27.568Z,86.50
2019-03-23T13:58:15.295Z,87.90
2019-03-23T14:00:53.167Z,89.10
2019-03-23T14:03:31.079Z,88.70
2019-03-23T14:06:08.997Z,93.10
2019-03-23T14:08:46.899Z,96.70
2019-03-23T14:11:25.077Z,98.90
2019-03-23T14:14:03.060Z,99.70
2019-03-23T14:16:41.414Z,99.90
2019-03-23T14:19:19.378Z,99.90
2019-03-23T14:21:57.701Z,99.90
2019-03-23T14:24:35.477Z,99.90
2019-03-23T14:27:13.180Z,99.90
2019-03-23T14:29:51.041Z,99.90
2019-03-23T14:32:28.997Z,99.90
2019-03-23T14:35:07.236Z,99.90
2019-03-23T14:37:45.206Z,99.90
2019-03-23T14:40:22.972Z,99.90
2019-03-23T14:43:01.831Z,99.90
2019-03-23T14:45:40.194Z,99.90
2019-03-23T14:48:18.000Z,99.90
2019-03-23T14:50:56.251Z,99.90
2019-03-23T14:53:34.044Z,99.90
2019-03-23T14:56:12.737Z,99.90
2019-03-23T14:58:50.663Z,99.90
2019-03-23T15:01:28.515Z,99.90
2019-03-23T15:04:06.374Z,99.90
2019-03-23T15:06:44.077Z,99.90
2019-03-23T15:09:21.738Z,99.90
2019-03-23T15:12:00.689Z,99.90
2019-03-23T15:14:38.968Z,99.90
2019-03-23T15:17:16.610Z,99.90
2019-03-23T15:19:54.650Z,99.90
2019-03-23T15:22:32.504Z,99.90
2019-03-23T15:25:10.491Z,99.90
2019-03-23T15:27:48.528Z,99.90
2019-03-23T15:30:26.444Z,99.90
2019-03-23T15:33:04.261Z,99.90
2019-03-23T15:35:42.212Z,99.90
2019-03-23T15:38:20.027Z,99.90
2019-03-23T15:40:57.793Z,99.90
2019-03-23T15:43:35.657Z,99.90
2019-03-23T15:46:13.539Z,99.90
2019-03-23T15:48:51.294Z,99.90
2019-03-23T15:51:30.227Z,99.90
2019-03-23T15:54:07.977Z,99.90
2019-03-23T15:56:45.694Z,99.90
2019-03-23T15:59:23.343Z,99.90
2019-03-23T16:02:01.210Z,99.90
2019-03-23T16:04:39.273Z,99.90
2019-03-23T16:07:17.212Z,99.90
2019-03-23T16:09:55.122Z,99.90
2019-03-23T16:12:35.271Z,99.90
2019-03-23T16:15:13.234Z,99.90
2019-03-23T16:17:50.982Z,99.90
2019-03-23T16:20:29.076Z,99.90
2019-03-23T16:23:07.798Z,99.90
2019-03-23T16:25:46.876Z,99.90
2019-03-23T16:28:26.330Z,99.90
2019-03-23T16:31:04.563Z,99.90
2019-03-23T16:33:42.800Z,99.90
2019-03-23T16:36:20.652Z,99.90
2019-03-23T16:38:59.153Z,99.90
2019-03-23T16:41:37.118Z,99.90
2019-03-23T16:44:43.923Z,99.90
2019-03-23T16:48:13.685Z,99.90
2019-03-23T16:50:59.159Z,99.90
2019-03-23T16:53:36.857Z,99.90
2019-03-23T16:56:14.537Z,99.90
2019-03-23T16:58:52.552Z,99.90
2019-03-23T17:01:30.514Z,99.90
2019-03-23T17:04:08.841Z,99.90
2019-03-23T17:06:47.110Z,99.90
2019-03-23T17:09:24.898Z,99.90
2019-03-23T17:12:02.674Z,99.90
2019-03-23T17:14:40.611Z,99.90
2019-03-23T17:17:18.794Z,99.90
2019-03-23T17:19:56.643Z,99.90
2019-03-23T17:22:34.879Z,99.90
2019-03-23T17:25:12.899Z,99.90
2019-03-23T17:27:51.138Z,99.90
2019-03-23T17:30:29.064Z,99.90
2019-03-23T17:33:08.944Z,99.90
2019-03-23T17:35:46.907Z,99.90
2019-03-23T17:38:24.713Z,99.90
2019-03-23T17:41:02.637Z,99.90
2019-03-23T17:43:41.153Z,99.90
2019-03-23T17:46:18.952Z,99.90
2019-03-23T17:48:56.810Z,99.90
2019-03-23T17:51:35.400Z,99.90
2019-03-23T17:54:13.677Z,99.90
2019-03-23T17:56:51.712Z,99.90
2019-03-23T17:59:29.458Z,99.90
2019-03-23T18:02:07.883Z,99.90
2019-03-23T18:04:46.539Z,99.90
2019-03-23T18:07:24.520Z,99.90
2019-03-23T18:10:02.659Z,99.90
2019-03-23T18:12:40.910Z,99.90
2019-03-23T18:15:19.564Z,99.90
2019-03-23T18:17:57.466Z,99.90
2019-03-23T18:20:35.694Z,99.90
2019-03-23T18:23:15.697Z,99.90
2019-03-23T18:25:52.886Z,99.90
2019-03-23T18:28:30.664Z,99.90
2019-03-23T18:31:08.535Z,99.90
2019-03-23T18:33:46.488Z,99.90
2019-03-23T18:36:24.512Z,99.90
2019-03-23T18:39:02.397Z,99.90
2019-03-23T18:41:41.787Z,99.90
2019-03-23T18:44:19.637Z,99.90
2019-03-23T18:46:57.434Z,99.90
2019-03-23T18:49:35.295Z,99.90
2019-03-23T18:52:13.524Z,99.90
2019-03-23T18:54:52.034Z,99.90
2019-03-23T18:57:30.138Z,99.90
2019-03-23T19:00:08.385Z,99.90
2019-03-23T19:02:46.620Z,99.90
2019-03-23T19:05:24.622Z,99.90
2019-03-23T19:08:02.446Z,99.90
2019-03-23T19:10:40.657Z,99.90
2019-03-23T19:13:18.935Z,99.90
2019-03-23T19:15:56.833Z,99.90
2019-03-23T19:18:34.577Z,99.90
2019-03-23T19:21:12.344Z,99.90
2019-03-23T19:23:50.188Z,99.90
2019-03-23T19:26:27.893Z,99.90
2019-03-23T19:29:06.718Z,99.90
2019-03-23T19:31:44.745Z,99.90
2019-03-23T19:34:22.573Z,99.90
2019-03-23T19:37:00.346Z,99.90
2019-03-23T19:39:39.124Z,99.90
2019-03-23T19:42:16.954Z,99.90
2019-03-23T19:44:54.729Z,99.90
2019-03-23T19:47:32.395Z,99.90
2019-03-23T19:50:10.666Z,99.90
2019-03-23T19:52:48.448Z,99.90
2019-03-23T19:55:26.164Z,99.90
2019-03-23T19:58:04.421Z,99.90
2019-03-23T20:00:42.609Z,99.90
2019-03-23T20:03:21.564Z,99.90
2019-03-23T20:05:59.722Z,99.90
2019-03-23T20:08:37.947Z,99.90
2019-03-23T20:11:15.702Z,99.90
2019-03-23T20:13:58.637Z,99.90
2019-03-23T20:16:33.291Z,99.90
2019-03-23T20:19:11.065Z,99.90
2019-03-23T20:21:48.834Z,99.90
2019-03-23T20:24:26.586Z,99.90
2019-03-23T20:27:04.526Z,99.90
2019-03-23T20:29:42.378Z,99.90
2019-03-23T20:32:20.278Z,99.90
2019-03-23T20:34:58.839Z,99.90
2019-03-23T20:37:36.989Z,99.90
2019-03-23T20:40:15.311Z,99.90
2019-03-23T20:42:53.159Z,99.90
2019-03-23T20:45:32.167Z,99.90
2019-03-23T20:48:09.974Z,99.90
2019-03-23T20:50:47.859Z,99.90
2019-03-23T20:53:25.749Z,99.90
2019-03-23T20:56:03.556Z,99.90
2019-03-23T20:58:41.408Z,99.90
2019-03-23T21:01:19.136Z,99.90
2019-03-23T21:03:57.379Z,99.90
2019-03-23T21:06:35.127Z,99.90
2019-03-23T21:09:13.243Z,99.90
2019-03-23T21:11:51.011Z,99.90
2019-03-23T21:14:28.731Z,99.90
2019-03-23T21:17:06.864Z,99.90
2019-03-23T21:19:44.948Z,99.90
2019-03-23T21:22:22.956Z,99.90
2019-03-23T21:25:01.002Z,99.90
2019-03-23T21:27:39.967Z,99.90
2019-03-23T21:30:20.915Z,99.90
2019-03-23T21:32:58.792Z,99.90
2019-03-23T21:35:37.016Z,99.90
2019-03-23T21:38:15.024Z,99.90
2019-03-23T21:40:52.789Z,99.90
2019-03-23T21:43:31.019Z,99.90
2019-03-23T21:46:08.840Z,99.90
2019-03-23T21:48:47.080Z,99.90
2019-03-23T21:51:24.833Z,99.90
2019-03-23T21:54:02.597Z,99.90
2019-03-23T21:56:40.370Z,99.90
2019-03-23T21:59:18.040Z,99.90
2019-03-23T22:01:55.912Z,99.90
2019-03-23T22:04:33.743Z,99.90
2019-03-23T22:07:11.622Z,99.90
2019-03-23T22:09:49.479Z,99.90
2019-03-23T22:12:27.099Z,99.90
2019-03-23T22:15:05.614Z,99.90
2019-03-23T22:17:43.543Z,99.90
2019-03-23T22:20:21.332Z,99.90
2019-03-23T22:22:59.260Z,99.90
2019-03-23T22:25:37.492Z,99.90
2019-03-23T22:28:15.697Z,99.90
2019-03-23T22:30:53.563Z,99.90
2019-03-23T22:33:31.293Z,99.90
2019-03-23T22:36:09.402Z,99.90
2019-03-23T22:38:47.126Z,99.90
2019-03-23T22:41:25.191Z,99.90
2019-03-23T22:44:02.933Z,99.90
2019-03-23T22:46:41.179Z,99.90
2019-03-23T22:49:18.999Z,99.90
2019-03-23T22:51:56.768Z,99.90
2019-03-23T22:54:34.665Z,99.90
2019-03-23T22:57:13.541Z,99.90
2019-03-23T22:59:51.161Z,99.90
2019-03-23T23:02:28.798Z,99.90
2019-03-23T23:05:07.619Z,99.90
2019-03-23T23:07:45.559Z,99.90
2019-03-23T23:10:24.345Z,99.90
2019-03-23T23:13:02.340Z,99.90
2019-03-23T23:15:41.271Z,99.90
2019-03-23T23:18:18.936Z,99.90
2019-03-23T23:20:57.071Z,99.90
2019-03-23T23:23:35.095Z,99.90
2019-03-23T23:26:12.904Z,99.90
2019-03-23T23:28:51.104Z,99.90
2019-03-23T23:31:29.036Z,99.90
2019-03-23T23:34:06.979Z,99.90
2019-03-23T23:36:45.216Z,99.90
2019-03-23T23:39:23.623Z,99.90
2019-03-23T23:42:01.484Z,99.90
2019-03-23T23:44:39.927Z,99.90
2019-03-23T23:47:18.058Z,99.90
2019-03-23T23:49:55.744Z,99.90
2019-03-23T23:52:33.628Z,99.90
2019-03-23T23:55:12.048Z,99.90
2019-03-23T23:57:49.913Z,99.90
